Time;durP1;ratioP1;P1;durP2;ratioP2;P2;SDS_P1;SDS_P2;PMS_P1;PMS_P2;Temp;Humidity;BMP_temperature;BMP_pressure;BME280_temperature;BME280_humidity;BME280_pressure;Samples;Min_cycle;Max_cycle;Signal;HPM_P1;HPM_P2
2022/12/27 00:00:34;;;;;;;14.50;9.85;;;;;;;2.12;82.10;101324.34;1786269;79;21382;-57
2022/12/27 00:03:42;;;;;;;13.60;9.78;;;;;;;2.20;82.31;101325.19;1804385;79;21170;-58
2022/12/27 00:06:48;;;;;;;14.13;10.03;;;;;;;2.26;82.30;101320.73;1803685;79;21212;-57
2022/12/27 00:09:54;;;;;;;13.50;9.20;;;;;;;2.29;82.32;101321.41;1766814;79;21181;-58
2022/12/27 00:13:01;;;;;;;14.20;10.00;;;;;;;2.32;82.33;101332.01;1803594;79;21236;-58
2022/12/27 00:16:17;;;;;;;16.62;9.85;;;;;;;2.36;82.36;101315.97;1804144;79;21729;-57
2022/12/27 00:19:22;;;;;;;14.60;9.75;;;;;;;2.39;82.35;101333.36;1804277;79;21197;-56
2022/12/27 00:22:22;;;;;;;13.45;9.38;;;;;;;2.43;82.34;101324.53;1804421;79;21736;-56
2022/12/27 00:25:29;;;;;;;14.03;10.32;;;;;;;2.45;82.31;101336.12;1804376;79;21193;-56
2022/12/27 00:28:37;;;;;;;14.40;10.65;;;;;;;2.49;82.32;101340.38;1804229;79;21172;-57
2022/12/27 00:31:44;;;;;;;17.32;12.05;;;;;;;2.50;82.33;101335.34;1804303;79;21702;-57
2022/12/27 00:34:50;;;;;;;17.05;11.97;;;;;;;2.54;82.37;101328.74;1804333;79;21189;-57
2022/12/27 00:37:59;;;;;;;19.25;13.35;;;;;;;2.54;82.32;101326.05;1801706;79;21721;-58
2022/12/27 00:41:04;;;;;;;18.57;13.18;;;;;;;2.57;82.29;101321.30;1804429;79;21209;-58
2022/12/27 00:44:10;;;;;;;18.30;12.63;;;;;;;2.56;82.23;101299.31;1804379;79;21184;-58
2022/12/27 00:47:16;;;;;;;18.27;12.50;;;;;;;2.53;82.03;101291.89;1804384;79;21205;-57
2022/12/27 00:50:24;;;;;;;17.20;12.23;;;;;;;2.47;81.75;101292.31;1804382;79;21208;-57
2022/12/27 00:53:29;;;;;;;17.90;11.08;;;;;;;2.40;81.59;101289.14;1786102;79;21180;-57
2022/12/27 00:56:36;;;;;;;17.12;11.40;;;;;;;2.36;81.49;101279.49;1804494;79;21165;-57
2022/12/27 00:59:42;;;;;;;18.20;12.43;;;;;;;2.31;81.48;101264.58;1804382;79;21193;-56
2022/12/27 01:02:48;;;;;;;18.15;12.53;;;;;;;2.30;81.58;101250.19;1804420;79;21267;-58
2022/12/27 01:05:55;;;;;;;22.50;13.90;;;;;;;2.28;81.65;101250.80;1804352;79;21177;-57
2022/12/27 01:09:02;;;;;;;23.30;12.60;;;;;;;2.29;81.67;101248.95;1804325;79;21205;-56
2022/12/27 01:12:08;;;;;;;16.67;10.60;;;;;;;2.27;81.56;101248.17;1804266;79;21212;-57
2022/12/27 01:15:16;;;;;;;15.70;11.03;;;;;;;2.24;81.50;101234.41;1804355;79;21748;-57
2022/12/27 01:18:23;;;;;;;14.58;10.03;;;;;;;2.16;81.42;101227.30;1804454;79;21180;-57
2022/12/27 01:21:30;;;;;;;16.42;10.80;;;;;;;2.10;81.37;101220.08;1804368;79;21431;-57
2022/12/27 01:24:39;;;;;;;16.40;10.98;;;;;;;2.05;81.33;101223.56;1804401;79;21554;-57
2022/12/27 01:27:45;;;;;;;15.70;10.58;;;;;;;2.04;81.42;101221.84;1804394;79;21242;-57
2022/12/27 01:30:51;;;;;;;18.02;12.10;;;;;;;2.03;81.48;101215.56;1804392;79;21201;-57
2022/12/27 01:34:04;;;;;;;15.93;11.45;;;;;;;2.05;81.54;101216.81;1804315;79;21193;-57
2022/12/27 01:37:11;;;;;;;16.97;11.35;;;;;;;2.07;81.62;101204.96;1804469;79;21192;-57
2022/12/27 01:40:18;;;;;;;16.10;11.75;;;;;;;2.11;81.65;101202.92;1765790;80;21240;-58
2022/12/27 01:43:25;;;;;;;17.25;12.45;;;;;;;2.06;81.52;101209.95;1771704;80;21201;-58
2022/12/27 01:46:32;;;;;;;20.92;13.80;;;;;;;2.03;81.41;101197.17;1771722;79;21209;-58
2022/12/27 01:49:38;;;;;;;20.50;13.38;;;;;;;1.93;81.24;101182.54;1770947;81;21674;-56
2022/12/27 01:52:49;;;;;;;22.50;12.80;;;;;;;1.82;81.17;101179.21;1770299;81;21205;-57
2022/12/27 01:56:03;;;;;;;20.48;12.10;;;;;;;1.72;81.17;101170.45;1771092;80;21209;-57
2022/12/27 01:59:14;;;;;;;18.60;11.40;;;;;;;1.61;81.19;101185.13;1770892;80;21197;-57
2022/12/27 02:02:21;;;;;;;20.17;12.00;;;;;;;1.52;81.25;101186.11;1770587;80;21225;-57
2022/12/27 02:05:28;;;;;;;18.32;11.95;;;;;;;1.47;81.33;101186.88;1762370;80;21241;-57
2022/12/27 02:09:16;;;;;;;19.37;12.47;;;;;;;1.45;81.41;101182.56;1771367;80;21197;-57
2022/12/27 02:12:22;;;;;;;18.45;11.15;;;;;;;1.46;81.53;101179.77;1770632;80;21619;-56
2022/12/27 02:15:29;;;;;;;14.60;9.75;;;;;;;1.45;81.61;101178.05;1770822;81;21232;-56
2022/12/27 02:18:35;;;;;;;14.35;9.80;;;;;;;1.40;81.61;101157.23;1771054;80;21189;-57
2022/12/27 02:22:19;;;;;;;15.32;9.98;;;;;;;1.37;81.67;101148.00;1770871;80;21232;-56
2022/12/27 02:25:42;;;;;;;12.45;8.65;;;;;;;1.33;81.64;101141.05;1771455;80;21189;-56
2022/12/27 02:29:18;;;;;;;11.12;8.30;;;;;;;1.28;81.72;101135.13;1770642;81;21741;-58
2022/12/27 02:32:33;;;;;;;13.72;8.18;;;;;;;1.32;81.99;101127.20;1767270;80;21244;-57
2022/12/27 02:35:47;;;;;;;11.97;8.33;;;;;;;1.38;81.97;101129.97;1770978;80;21188;-57
2022/12/27 02:38:56;;;;;;;11.53;7.90;;;;;;;1.40;81.93;101124.87;1770763;79;21205;-57
2022/12/27 02:53:03;;;;;;;12.05;8.58;;;;;;;1.48;81.91;101154.91;1804279;79;21181;-57
2022/12/27 03:04:40;;;;;;;13.95;9.65;;;;;;;1.48;81.92;101133.33;1804295;79;21559;-57
2022/12/27 03:08:08;;;;;;;13.88;9.93;;;;;;;1.46;81.88;101131.20;1804260;79;21200;-57
2022/12/27 03:18:21;;;;;;;13.40;9.15;;;;;;;1.41;82.02;101135.19;1804257;79;21205;-57
2022/12/27 03:35:31;;;;;;;16.27;11.18;;;;;;;1.42;82.02;101122.95;1804320;79;21173;-56
2022/12/27 03:38:36;;;;;;;19.70;12.65;;;;;;;1.38;81.94;101117.83;1804529;79;21255;-59
2022/12/27 03:45:15;;;;;;;17.48;11.45;;;;;;;1.30;81.94;101121.53;1804394;79;21201;-56
2022/12/27 03:48:21;;;;;;;19.85;12.60;;;;;;;1.31;82.04;101107.95;1804419;79;21169;-56
2022/12/27 03:51:27;;;;;;;16.25;11.53;;;;;;;1.31;81.99;101101.68;1804417;79;21212;-57
2022/12/27 03:54:38;;;;;;;21.55;13.45;;;;;;;1.28;82.01;101106.80;1804415;79;21212;-56
2022/12/27 03:57:44;;;;;;;18.67;12.23;;;;;;;1.27;82.03;101092.91;1804336;79;21188;-57
2022/12/27 04:00:45;;;;;;;21.95;13.43;;;;;;;1.25;82.02;101097.53;1804378;79;21209;-55
2022/12/27 04:03:37;;;;;;;19.65;13.00;;;;;;;1.22;82.04;101092.34;1784702;79;21165;-56
2022/12/27 04:06:43;;;;;;;19.40;11.80;;;;;;;1.22;82.13;101081.56;1804264;79;21236;-55
2022/12/27 04:37:06;;;;;;;22.25;14.00;;;;;;;1.49;82.45;101034.39;1804389;79;21216;-55
2022/12/27 04:57:25;;;;;;;27.48;17.17;;;;;;;1.59;82.28;101003.11;1804410;79;21213;-56
2022/12/27 05:04:00;;;;;;;26.12;15.20;;;;;;;1.54;82.18;100999.38;1804429;79;21213;-56
2022/12/27 05:14:00;;;;;;;;;;;;;;;1.45;82.27;100987.88;1775421;79;21170;-56
2022/12/27 05:17:05;;;;;;;27.30;15.93;;;;;;;1.44;82.23;100978.03;1772254;80;20577;-56
2022/12/27 05:20:14;;;;;;;28.47;17.07;;;;;;;1.46;82.33;100974.75;1751771;80;21240;-55
2022/12/27 05:26:43;;;;;;;28.65;16.50;;;;;;;1.50;82.40;100958.77;1767250;80;21180;-55
2022/12/27 05:29:50;;;;;;;25.52;16.00;;;;;;;1.55;82.43;100945.80;1767096;80;21243;-55
2022/12/27 05:32:59;;;;;;;25.37;16.70;;;;;;;1.55;82.36;100952.53;1780281;79;21256;-56
2022/12/27 05:36:05;;;;;;;24.20;14.63;;;;;;;1.57;82.38;100939.45;1764918;79;21259;-56
2022/12/27 05:39:12;;;;;;;24.60;15.00;;;;;;;1.60;82.39;100937.41;1767019;80;21227;-56
2022/12/27 05:42:17;;;;;;;20.70;14.28;;;;;;;1.63;82.46;100934.97;1767017;80;21216;-55
2022/12/27 05:45:22;;;;;;;24.10;14.55;;;;;;;1.65;82.44;100920.39;1772255;81;21984;-56
2022/12/27 05:48:28;;;;;;;22.73;14.53;;;;;;;1.68;82.44;100917.52;1772098;80;21729;-56
2022/12/27 05:51:34;;;;;;;22.32;14.35;;;;;;;1.70;82.42;100914.70;1793460;79;21175;-55
2022/12/27 05:54:39;;;;;;;21.87;13.80;;;;;;;1.71;82.44;100908.33;1797782;79;21849;-54
2022/12/27 05:57:46;;;;;;;19.42;13.35;;;;;;;1.70;82.37;100902.05;1788025;79;21390;-54
2022/12/27 06:00:52;;;;;;;21.23;14.53;;;;;;;1.74;82.39;100901.36;1794901;79;21299;-55
2022/12/27 06:03:58;;;;;;;20.40;12.98;;;;;;;1.74;82.41;100897.31;1795595;79;21201;-54
2022/12/27 06:07:03;;;;;;;20.90;13.90;;;;;;;1.78;82.44;100895.63;1801112;79;21205;-55
2022/12/27 06:10:10;;;;;;;19.87;12.33;;;;;;;1.83;82.47;100894.83;1791705;79;21287;-56
2022/12/27 06:13:16;;;;;;;16.17;11.95;;;;;;;1.90;82.54;100877.72;1789879;79;21256;-56
2022/12/27 06:16:22;;;;;;;16.50;10.88;;;;;;;1.94;82.54;100871.11;1792219;79;21735;-57
2022/12/27 06:19:27;;;;;;;20.35;11.60;;;;;;;1.99;82.55;100869.83;1774745;79;21263;-57
2022/12/27 06:22:34;;;;;;;15.23;11.33;;;;;;;2.03;82.54;100877.23;1800908;79;21797;-58
2022/12/27 06:25:39;;;;;;;22.77;19.70;;;;;;;2.07;82.54;100874.67;1795469;79;21615;-56
2022/12/27 06:28:47;;;;;;;15.85;10.45;;;;;;;2.13;82.61;100860.72;1792850;79;21760;-55
2022/12/27 06:31:54;;;;;;;13.75;9.53;;;;;;;2.21;82.64;100861.03;1760616;79;21240;-55
2022/12/27 06:35:00;;;;;;;14.18;10.13;;;;;;;2.25;82.52;100855.80;1770046;81;21255;-57
2022/12/27 06:38:14;;;;;;;14.35;9.65;;;;;;;2.27;82.55;100849.78;1788323;79;21814;-51
2022/12/27 06:41:21;;;;;;;14.95;9.13;;;;;;;2.34;82.55;100845.19;1753061;79;21256;-53
2022/12/27 06:44:27;;;;;;;19.48;11.95;;;;;;;2.36;82.39;100841.86;1770775;78;21205;-51
2022/12/27 06:47:33;;;;;;;14.38;9.78;;;;;;;2.37;82.33;100843.61;1783565;79;21323;-50
2022/12/27 06:50:44;;;;;;;14.45;9.13;;;;;;;2.43;82.41;100839.09;1792484;79;21280;-51
2022/12/27 06:53:51;;;;;;;14.38;9.78;;;;;;;2.48;82.38;100845.51;1792248;79;21220;-52
2022/12/27 06:56:57;;;;;;;14.68;9.18;;;;;;;2.44;82.20;100836.76;1725715;82;21773;-50
2022/12/27 07:00:06;;;;;;;16.37;10.35;;;;;;;2.39;82.12;100840.31;1765097;81;21220;-51
2022/12/27 07:03:25;;;;;;;17.90;10.80;;;;;;;2.37;82.07;100826.05;1765170;81;21880;-52
2022/12/27 07:06:45;;;;;;;14.90;10.13;;;;;;;2.33;82.01;100818.29;1730427;82;21335;-56
2022/12/27 07:09:53;;;;;;;18.07;10.25;;;;;;;2.31;82.10;100824.28;1792261;79;21321;-55
2022/12/27 07:12:58;;;;;;;14.53;9.30;;;;;;;2.34;82.18;100822.70;1783335;79;21641;-56
2022/12/27 07:16:03;;;;;;;13.72;9.30;;;;;;;2.36;82.21;100817.55;1771699;80;21181;-56
2022/12/27 07:19:14;;;;;;;13.58;9.50;;;;;;;2.40;82.22;100820.41;1770007;80;21237;-57
2022/12/27 07:22:29;;;;;;;15.13;9.20;;;;;;;2.48;82.30;100819.84;1760905;79;21249;-56
2022/12/27 07:25:41;;;;;;;13.95;8.93;;;;;;;2.57;82.37;100824.06;1780203;79;21367;-56
2022/12/27 07:28:51;;;;;;;15.35;9.90;;;;;;;2.60;82.20;100818.95;1771344;79;21239;-57
2022/12/27 07:31:59;;;;;;;14.98;9.20;;;;;;;2.62;82.21;100823.24;1791764;79;21812;-55
2022/12/27 07:35:07;;;;;;;13.78;9.10;;;;;;;2.70;82.31;100822.66;1797884;79;21738;-56
2022/12/27 07:38:16;;;;;;;14.78;9.85;;;;;;;2.73;82.21;100806.20;1775657;79;21209;-57
2022/12/27 07:41:23;;;;;;;13.72;10.23;;;;;;;2.70;82.12;100806.44;1788997;79;21197;-56
2022/12/27 07:44:30;;;;;;;17.00;9.33;;;;;;;2.73;82.11;100799.45;1794361;79;21177;-55
2022/12/27 07:47:35;;;;;;;16.87;10.93;;;;;;;2.65;81.92;100801.87;1767078;79;21879;-57
2022/12/27 07:50:41;;;;;;;19.98;11.85;;;;;;;2.63;82.04;100799.80;1774167;79;21184;-57
2022/12/27 07:53:56;;;;;;;14.93;9.08;;;;;;;2.67;82.15;100806.20;1775645;79;21249;-56
2022/12/27 07:57:22;;;;;;;18.67;11.50;;;;;;;2.73;82.21;100813.84;1764275;79;21349;-57
2022/12/27 08:00:29;;;;;;;17.23;10.45;;;;;;;2.79;82.27;100805.77;1781343;79;21573;-56
2022/12/27 08:03:35;;;;;;;15.60;9.33;;;;;;;2.76;82.13;100802.79;1790621;79;21224;-57
2022/12/27 08:06:41;;;;;;;13.20;8.33;;;;;;;2.76;82.14;100800.56;1745910;81;21564;-55
2022/12/27 08:09:50;;;;;;;14.28;9.33;;;;;;;2.80;82.18;100800.72;1798652;79;21330;-57
2022/12/27 08:13:02;;;;;;;11.78;8.30;;;;;;;2.81;82.18;100792.97;1784920;79;21859;-57
2022/12/27 08:16:09;;;;;;;14.20;8.53;;;;;;;2.85;82.21;100789.91;1791462;79;21865;-56
2022/12/27 08:19:23;;;;;;;12.07;7.62;;;;;;;2.89;82.32;100773.84;1770352;79;21217;-58
2022/12/27 08:22:36;;;;;;;11.00;6.83;;;;;;;3.00;82.24;100770.30;1816136;76;22625;-58
2022/12/27 08:25:42;;;;;;;12.45;8.10;;;;;;;2.95;82.10;100764.39;1760786;79;21186;-57
2022/12/27 08:28:52;;;;;;;11.10;8.30;;;;;;;2.90;82.01;100757.15;1779069;79;21197;-58
2022/12/27 08:32:04;;;;;;;13.08;8.48;;;;;;;2.91;82.00;100754.80;1769755;80;21831;-58
2022/12/27 08:35:25;;;;;;;13.95;8.63;;;;;;;2.88;81.93;100747.80;1779663;79;21697;-58
2022/12/27 08:39:08;;;;;;;10.98;7.50;;;;;;;2.88;81.96;100741.05;1772564;79;21165;-56
2022/12/27 08:42:07;;;;;;;12.35;7.90;;;;;;;2.88;81.92;100730.71;1787448;80;21588;-58
2022/12/27 08:45:12;;;;;;;20.15;11.03;;;;;;;2.89;81.91;100731.95;1795065;79;21220;-57
2022/12/27 08:48:22;;;;;;;14.63;8.85;;;;;;;2.94;82.12;100735.16;1784364;79;21272;-56
2022/12/27 08:51:28;;;;;;;11.33;7.17;;;;;;;3.05;82.32;100728.91;1801556;78;21766;-57
2022/12/27 08:54:36;;;;;;;10.18;7.40;;;;;;;3.12;82.31;100712.58;1781372;79;21200;-57
2022/12/27 08:57:43;;;;;;;9.80;6.95;;;;;;;3.11;82.17;100714.89;1762853;80;21204;-57
2022/12/27 09:00:49;;;;;;;9.38;7.00;;;;;;;3.09;82.09;100709.61;1767496;80;21173;-58
2022/12/27 09:03:55;;;;;;;11.40;7.08;;;;;;;3.06;82.01;100696.81;1779628;79;21567;-57
2022/12/27 09:07:01;;;;;;;10.43;6.65;;;;;;;3.03;81.93;100691.65;1769553;79;21773;-57
2022/12/27 09:10:07;;;;;;;10.85;6.80;;;;;;;3.03;82.05;100678.13;1777659;79;21164;-56
2022/12/27 09:13:13;;;;;;;10.15;6.35;;;;;;;3.04;81.96;100674.46;1763545;81;21530;-57
2022/12/27 09:16:21;;;;;;;10.15;5.78;;;;;;;3.02;81.95;100660.19;1763624;79;21227;-57
2022/12/27 09:19:30;;;;;;;8.83;5.10;;;;;;;3.02;81.91;100661.55;1760289;80;21291;-58
2022/12/27 09:22:36;;;;;;;9.20;5.75;;;;;;;3.05;81.96;100655.89;1761848;79;22003;-57
2022/12/27 09:25:43;;;;;;;9.90;6.35;;;;;;;3.05;81.94;100657.24;1778231;79;21776;-52
2022/12/27 09:28:51;;;;;;;13.25;9.65;;;;;;;3.09;82.11;100657.38;1774910;79;21195;-52
2022/12/27 09:31:57;;;;;;;12.55;7.60;;;;;;;3.18;82.22;100661.19;1770074;79;21221;-52
2022/12/27 09:35:01;;;;;;;7.95;6.30;;;;;;;3.23;82.29;100655.79;1761630;80;21212;-53
2022/12/27 09:38:10;;;;;;;8.13;5.42;;;;;;;3.28;82.27;100649.52;1787881;79;21190;-51
2022/12/27 09:41:44;;;;;;;7.47;5.55;;;;;;;3.37;82.37;100647.42;1801021;78;21256;-52
2022/12/27 09:45:03;;;;;;;11.18;6.40;;;;;;;3.39;82.18;100635.98;1738362;81;21706;-51
2022/12/27 09:48:19;;;;;;;8.43;5.75;;;;;;;3.38;82.17;100635.59;1770485;79;21260;-50
2022/12/27 09:51:35;;;;;;;9.15;6.17;;;;;;;3.44;82.17;100631.55;1777522;79;21185;-54
2022/12/27 09:54:52;;;;;;;7.12;5.60;;;;;;;3.53;82.27;100623.55;1782858;79;21179;-52
2022/12/27 09:58:05;;;;;;;7.90;6.08;;;;;;;3.60;82.28;100612.56;1792872;79;21295;-52
2022/12/27 10:01:27;;;;;;;7.92;5.47;;;;;;;3.59;82.04;100620.33;1784093;80;21291;-53
2022/12/27 10:04:39;;;;;;;8.15;5.30;;;;;;;3.59;81.91;100604.58;1789464;79;21325;-56
2022/12/27 10:08:37;;;;;;;8.75;5.87;;;;;;;3.56;81.90;100584.53;1769185;80;21575;-55
2022/12/27 10:12:11;;;;;;;7.33;5.35;;;;;;;3.47;81.71;100572.64;1770545;79;21302;-55
2022/12/27 10:15:48;;;;;;;10.20;6.00;;;;;;;3.45;81.68;100571.03;1778023;79;21204;-51
2022/12/27 10:19:21;;;;;;;8.35;5.85;;;;;;;3.45;81.67;100562.42;1796965;79;21172;-52
2022/12/27 10:22:45;;;;;;;6.95;4.70;;;;;;;3.50;81.77;100564.27;1796290;78;21243;-52
2022/12/27 10:25:54;;;;;;;7.37;5.50;;;;;;;3.57;81.87;100550.57;1796226;78;21494;-51
2022/12/27 10:29:12;;;;;;;6.70;5.12;;;;;;;3.62;81.87;100548.34;1795319;80;21172;-52
2022/12/27 10:32:20;;;;;;;7.92;5.37;;;;;;;3.68;81.94;100546.99;1796012;78;21196;-57
2022/12/27 10:35:27;;;;;;;6.95;5.25;;;;;;;3.77;82.00;100544.38;1795489;79;21752;-57
2022/12/27 10:38:39;;;;;;;7.83;5.53;;;;;;;3.80;81.86;100536.47;1796091;79;21529;-56
2022/12/27 10:42:10;;;;;;;7.42;5.40;;;;;;;3.78;81.77;100531.67;1795629;78;21729;-57
2022/12/27 10:45:43;;;;;;;6.00;4.85;;;;;;;3.79;81.86;100528.00;1796019;80;21443;-56
2022/12/27 10:49:08;;;;;;;9.33;6.20;;;;;;;3.77;81.78;100511.02;1771135;79;21829;-56
2022/12/27 10:52:28;;;;;;;12.53;5.97;;;;;;;3.77;81.82;100502.41;1786923;78;21200;-57
2022/12/27 10:55:43;;;;;;;7.58;5.40;;;;;;;3.80;81.81;100487.74;1791683;79;21583;-57
2022/12/27 10:58:55;;;;;;;7.83;6.12;;;;;;;3.85;81.88;100496.34;1801699;79;21216;-56
2022/12/27 11:02:15;;;;;;;9.35;6.47;;;;;;;3.89;81.98;100491.02;1784591;79;21252;-56
2022/12/27 11:05:30;;;;;;;6.35;5.05;;;;;;;3.93;82.07;100487.91;1786834;79;21190;-61
2022/12/27 11:08:42;;;;;;;7.37;5.58;;;;;;;3.92;82.02;100493.45;1767031;80;21280;-55
2022/12/27 11:11:51;;;;;;;7.17;5.20;;;;;;;3.86;81.97;100484.02;1769192;79;21209;-56
2022/12/27 11:15:23;;;;;;;10.08;5.78;;;;;;;3.85;81.93;100479.61;1788296;78;21627;-56
2022/12/27 11:18:29;;;;;;;8.18;5.33;;;;;;;3.84;82.04;100480.58;1784724;79;21197;-57
2022/12/27 11:21:36;;;;;;;7.15;4.90;;;;;;;3.92;82.17;100479.43;1776559;79;21215;-56
2022/12/27 11:24:43;;;;;;;6.95;5.15;;;;;;;4.03;82.34;100486.62;1789533;78;21291;-56
2022/12/27 11:27:59;;;;;;;6.80;4.80;;;;;;;4.10;82.40;100479.70;1776363;79;21211;-56
2022/12/27 11:31:22;;;;;;;6.78;4.90;;;;;;;4.14;82.41;100479.30;1776926;79;21252;-56
2022/12/27 11:34:38;;;;;;;6.35;5.05;;;;;;;4.21;82.44;100484.56;1767749;79;21604;-57
2022/12/27 11:37:47;;;;;;;7.45;5.67;;;;;;;4.28;82.54;100486.24;1731294;82;21220;-56
2022/12/27 11:40:53;;;;;;;6.97;5.78;;;;;;;4.34;82.50;100477.57;1722816;82;21763;-56
2022/12/27 11:44:05;;;;;;;7.25;6.17;;;;;;;4.37;82.48;100479.52;1682368;82;21226;-59
2022/12/27 11:47:40;;;;;;;12.90;8.73;;;;;;;4.41;82.48;100466.05;1798273;78;21550;-60
2022/12/27 11:50:57;;;;;;;8.18;6.10;;;;;;;4.44;82.45;100461.71;1796525;79;21268;-60
2022/12/27 11:54:58;;;;;;;9.70;6.55;;;;;;;4.46;82.45;100465.16;1761344;81;21746;-59
2022/12/27 11:58:26;;;;;;;10.23;8.25;;;;;;;4.49;82.51;100464.02;1724837;80;21801;-61
2022/12/27 12:01:46;;;;;;;48.83;23.10;;;;;;;4.50;82.46;100459.81;1792897;78;21201;-59
2022/12/27 12:05:16;;;;;;;13.53;8.58;;;;;;;4.52;82.52;100465.97;1764218;81;21236;-59
2022/12/27 12:09:03;;;;;;;14.58;9.00;;;;;;;4.55;82.51;100458.08;1764062;81;21666;-59
2022/12/27 12:12:29;;;;;;;20.15;13.55;;;;;;;4.59;82.54;100472.57;1774322;79;21205;-59
2022/12/27 12:15:42;;;;;;;14.05;9.03;;;;;;;4.63;82.52;100468.58;1794812;79;21185;-59
2022/12/27 12:19:11;;;;;;;10.43;7.05;;;;;;;4.63;82.48;100467.23;1766699;79;21184;-60
2022/12/27 12:22:36;;;;;;;12.20;6.30;;;;;;;4.61;82.45;100458.36;1792804;79;21281;-60
2022/12/27 12:26:17;;;;;;;9.23;6.12;;;;;;;4.61;82.47;100464.30;1793168;78;21186;-61
2022/12/27 12:29:30;;;;;;;10.80;6.40;;;;;;;4.60;82.46;100464.78;1771636;79;21212;-61
2022/12/27 12:32:58;;;;;;;9.35;6.80;;;;;;;4.59;82.46;100466.28;1792668;79;21244;-61
2022/12/27 12:36:45;;;;;;;14.68;8.83;;;;;;;4.57;82.49;100456.94;1793458;77;21660;-60
2022/12/27 12:40:23;;;;;;;18.50;12.03;;;;;;;4.54;82.46;100462.62;1783550;78;21595;-59
2022/12/27 12:44:00;;;;;;;22.87;12.70;;;;;;;4.55;82.54;100469.75;1777819;79;21339;-59
2022/12/27 12:47:32;;;;;;;13.20;9.95;;;;;;;4.58;82.59;100467.28;1790355;78;21260;-58
2022/12/27 12:51:10;;;;;;;13.05;10.13;;;;;;;4.58;82.61;100464.06;1784408;79;21725;-59
2022/12/27 12:54:52;;;;;;;17.85;12.85;;;;;;;4.57;82.52;100466.91;1797033;79;21535;-58
2022/12/27 12:58:24;;;;;;;24.30;16.27;;;;;;;4.55;82.62;100461.63;1791992;79;21228;-59
2022/12/27 13:01:41;;;;;;;21.73;13.53;;;;;;;4.57;82.64;100460.13;1800466;79;21259;-59
2022/12/27 13:05:16;;;;;;;19.27;12.03;;;;;;;4.59;82.66;100450.02;1785726;79;21304;-54
2022/12/27 13:08:44;;;;;;;17.60;11.20;;;;;;;4.60;82.67;100455.30;1782838;79;21506;-55
2022/12/27 13:12:44;;;;;;;16.27;10.85;;;;;;;4.61;82.66;100451.58;1788614;78;21705;-54
2022/12/27 13:16:23;;;;;;;18.70;12.78;;;;;;;4.59;82.59;100453.59;1771155;79;21231;-55
2022/12/27 13:20:11;;;;;;;20.70;12.82;;;;;;;4.60;82.66;100462.08;1781553;79;21578;-55
2022/12/27 13:23:39;;;;;;;;;;;;;;;4.63;82.71;100460.09;1796620;79;21577;-53
2022/12/27 13:26:54;;;;;;;39.58;21.20;;;;;;;4.63;82.75;100457.73;1783511;79;20207;-54
2022/12/27 13:30:16;;;;;;;41.73;24.45;;;;;;;4.63;82.86;100459.09;1786888;79;21199;-56
2022/12/27 13:33:35;;;;;;;24.23;15.38;;;;;;;4.65;82.87;100461.66;1785271;79;21224;-53
2022/12/27 13:37:17;;;;;;;27.93;17.50;;;;;;;4.66;82.89;100464.76;1756887;79;21344;-54
2022/12/27 13:40:49;;;;;;;33.33;20.30;;;;;;;4.70;82.96;100463.96;1784458;78;21185;-53
2022/12/27 13:44:16;;;;;;;28.38;17.85;;;;;;;4.69;82.96;100453.64;1781437;78;21184;-54
2022/12/27 13:47:41;;;;;;;38.23;21.60;;;;;;;4.71;82.88;100461.11;1780274;79;21743;-53
2022/12/27 13:51:02;;;;;;;56.95;26.00;;;;;;;4.72;82.93;100463.34;1775839;79;21186;-53
2022/12/27 13:54:49;;;;;;;103.53;41.17;;;;;;;4.73;82.90;100463.69;1780620;79;21772;-54
2022/12/27 13:58:17;;;;;;;59.30;27.75;;;;;;;4.71;82.84;100456.20;1795088;79;21209;-54
2022/12/27 14:01:37;;;;;;;32.88;18.25;;;;;;;4.72;82.83;100460.14;1747722;78;21230;-53
2022/12/27 14:04:55;;;;;;;31.93;17.77;;;;;;;4.70;82.74;100453.98;1785940;79;21201;-52
2022/12/27 14:08:49;;;;;;;29.65;18.07;;;;;;;4.72;82.79;100448.42;1779105;79;21247;-53
2022/12/27 14:12:45;;;;;;;31.50;20.65;;;;;;;4.72;82.83;100450.65;1781735;79;21189;-51
2022/12/27 14:16:20;;;;;;;61.95;35.92;;;;;;;4.73;82.81;100440.15;1790510;79;21845;-52
2022/12/27 14:19:42;;;;;;;176.68;88.25;;;;;;;4.76;82.86;100440.39;1789603;79;21217;-51
2022/12/27 14:23:02;;;;;;;38.63;23.25;;;;;;;4.77;82.85;100439.38;1783485;79;21192;-52
2022/12/27 14:26:42;;;;;;;39.45;23.98;;;;;;;4.78;82.86;100445.16;1789898;79;21663;-53
2022/12/27 14:30:28;;;;;;;44.45;24.60;;;;;;;4.78;82.90;100444.67;1713640;81;21197;-54
2022/12/27 14:34:25;;;;;;;49.13;24.15;;;;;;;4.80;82.95;100439.97;1745952;81;21279;-53
2022/12/27 14:38:25;;;;;;;38.45;21.75;;;;;;;4.81;83.00;100438.09;1762246;80;21462;-52
2022/12/27 14:42:00;;;;;;;36.65;21.40;;;;;;;4.80;83.02;100441.81;1749831;80;21828;-52
2022/12/27 14:45:22;;;;;;;34.53;20.77;;;;;;;4.82;83.11;100447.97;1743812;80;21208;-52
2022/12/27 14:48:47;;;;;;;31.05;19.25;;;;;;;4.81;83.11;100429.48;1743074;80;21808;-52
2022/12/27 14:52:11;;;;;;;32.25;17.73;;;;;;;4.82;83.08;100426.27;1754383;80;21200;-52
2022/12/27 14:55:42;;;;;;;38.30;20.40;;;;;;;4.81;83.06;100434.03;1753224;80;21169;-53
2022/12/27 14:58:54;;;;;;;33.92;17.95;;;;;;;4.82;83.10;100433.89;1751307;80;21748;-51
2022/12/27 15:02:06;;;;;;;39.10;20.65;;;;;;;4.80;83.13;100434.55;1745473;81;21181;-52
2022/12/27 15:05:51;;;;;;;50.30;22.60;;;;;;;4.79;83.15;100437.41;1750141;81;21702;-51
2022/12/27 15:09:24;;;;;;;28.75;17.82;;;;;;;4.78;83.18;100431.59;1744781;80;21263;-51
2022/12/27 15:13:08;;;;;;;32.38;19.40;;;;;;;4.77;83.12;100423.98;1749423;81;21604;-52
2022/12/27 15:16:51;;;;;;;29.50;15.35;;;;;;;4.76;83.17;100434.45;1761288;80;21887;-52
2022/12/27 15:20:17;;;;;;;29.40;15.27;;;;;;;4.75;83.17;100438.66;1756372;81;21164;-52
2022/12/27 15:23:52;;;;;;;29.15;15.98;;;;;;;4.75;83.18;100425.09;1761743;80;21633;-51
2022/12/27 15:27:23;;;;;;;32.53;17.87;;;;;;;4.75;83.16;100429.16;1760537;81;21268;-52
2022/12/27 15:31:01;;;;;;;32.98;18.73;;;;;;;4.74;83.10;100422.04;1788751;79;21205;-53
2022/12/27 15:34:53;;;;;;;32.30;18.65;;;;;;;4.73;83.12;100416.23;1789203;80;22037;-52
2022/12/27 15:38:12;;;;;;;35.88;19.95;;;;;;;4.75;83.17;100403.41;1756895;81;21586;-52
2022/12/27 15:41:29;;;;;;;37.80;21.00;;;;;;;4.78;83.23;100403.13;1788756;80;21207;-52
2022/12/27 15:45:04;;;;;;;35.17;20.92;;;;;;;4.80;83.16;100399.30;1744136;79;21219;-52
2022/12/27 15:48:34;;;;;;;41.95;18.85;;;;;;;4.82;83.17;100393.73;1791488;78;21400;-52
2022/12/27 15:51:59;;;;;;;37.25;18.37;;;;;;;4.81;83.19;100405.55;1791653;80;21208;-53
2022/12/27 15:55:33;;;;;;;42.50;20.53;;;;;;;4.79;83.25;100413.00;1791707;80;21690;-53
2022/12/27 15:58:41;;;;;;;39.95;21.40;;;;;;;4.78;83.29;100411.27;1760432;81;21449;-52
2022/12/27 16:01:47;;;;;;;44.67;21.93;;;;;;;4.80;83.40;100406.56;1785443;80;21777;-53
2022/12/27 16:05:04;;;;;;;37.00;19.65;;;;;;;4.80;83.40;100411.50;1792515;79;21200;-53
2022/12/27 16:08:19;;;;;;;38.85;20.62;;;;;;;4.79;83.36;100411.64;1790378;78;21238;-52
2022/12/27 16:11:24;;;;;;;48.65;22.73;;;;;;;4.78;83.36;100413.97;1751200;81;21284;-52
2022/12/27 16:14:36;;;;;;;40.20;21.30;;;;;;;4.78;83.40;100416.69;1722695;83;21189;-53
2022/12/27 16:18:01;;;;;;;42.23;20.23;;;;;;;4.79;83.44;100404.34;1775487;78;21604;-52
2022/12/27 16:21:22;;;;;;;45.00;20.62;;;;;;;4.78;83.34;100402.64;1760458;81;21594;-52
2022/12/27 16:24:30;;;;;;;43.63;20.25;;;;;;;4.78;83.36;100404.48;1781786;80;21184;-52
2022/12/27 16:27:39;;;;;;;42.38;19.98;;;;;;;4.77;83.37;100409.06;1787860;80;21688;-52
2022/12/27 16:30:55;;;;;;;44.33;23.02;;;;;;;4.77;83.40;100397.36;1790564;79;21355;-52
2022/12/27 16:34:02;;;;;;;58.02;33.35;;;;;;;4.78;83.48;100401.77;1784488;79;21563;-51
2022/12/27 16:37:09;;;;;;;48.73;26.02;;;;;;;4.79;83.47;100397.56;1801135;79;21189;-50
2022/12/27 16:40:47;;;;;;;48.15;22.85;;;;;;;4.81;83.50;100392.00;1800620;79;21797;-50
2022/12/27 16:44:28;;;;;;;43.02;22.30;;;;;;;4.83;83.52;100388.66;1790029;79;21220;-51
2022/12/27 16:48:04;;;;;;;44.95;23.35;;;;;;;4.84;83.59;100379.52;1801089;78;21221;-51
2022/12/27 16:51:40;;;;;;;50.90;20.75;;;;;;;4.87;83.64;100380.09;1801103;79;21192;-51